createdAt,value
2022-09-20T00:00:07.617Z,91.51
2022-09-20T00:01:02.673Z,91.58
2022-09-20T00:01:57.730Z,91.58
2022-09-20T00:02:52.818Z,91.63
2022-09-20T00:03:47.939Z,91.62
2022-09-20T00:04:43.088Z,91.61
2022-09-20T00:05:38.037Z,91.56
2022-09-20T00:06:33.127Z,91.59
2022-09-20T00:07:28.177Z,91.56
2022-09-20T00:08:23.202Z,91.56
2022-09-20T00:09:18.251Z,91.47
2022-09-20T00:10:13.323Z,91.40
2022-09-20T00:11:08.488Z,91.37
2022-09-20T00:12:03.700Z,91.32
2022-09-20T00:12:58.775Z,91.36
2022-09-20T00:13:54.011Z,91.40
2022-09-20T00:14:49.246Z,91.47
2022-09-20T00:15:45.221Z,91.50
2022-09-20T00:16:40.385Z,91.43
2022-09-20T00:17:35.599Z,91.53
2022-09-20T00:18:31.995Z,91.53
2022-09-20T00:19:27.091Z,91.51
2022-09-20T00:20:22.885Z,91.49
2022-09-20T00:21:18.083Z,91.45
2022-09-20T00:22:13.322Z,91.45
2022-09-20T00:23:08.992Z,91.51
2022-09-20T00:24:04.245Z,91.51
2022-09-20T00:25:00.091Z,91.54
2022-09-20T00:25:55.142Z,91.55
2022-09-20T00:26:50.533Z,91.61
2022-09-20T00:27:46.203Z,91.66
2022-09-20T00:28:41.471Z,91.60
2022-09-20T00:29:36.558Z,91.56
2022-09-20T00:30:33.016Z,91.47
2022-09-20T00:31:28.351Z,91.43
2022-09-20T00:32:24.128Z,91.43
2022-09-20T00:33:19.320Z,91.44
2022-09-20T00:34:14.447Z,91.53
2022-09-20T00:35:10.238Z,91.65
2022-09-20T00:36:05.368Z,91.68
2022-09-20T00:37:01.145Z,91.64
2022-09-20T00:37:56.364Z,91.57
2022-09-20T00:38:51.645Z,91.55
2022-09-20T00:39:47.414Z,91.43
2022-09-20T00:40:42.705Z,91.27
2022-09-20T00:41:37.700Z,91.22
2022-09-20T00:42:34.307Z,91.26
2022-09-20T00:43:29.563Z,91.37
2022-09-20T00:44:25.373Z,91.43
2022-09-20T00:45:20.454Z,91.18
2022-09-20T00:46:15.758Z,90.95
2022-09-20T00:47:11.622Z,90.90
2022-09-20T00:48:06.720Z,90.88
2022-09-20T00:49:02.660Z,90.70
2022-09-20T00:49:57.743Z,90.38
2022-09-20T00:50:52.852Z,90.17
2022-09-20T00:51:48.657Z,89.82
2022-09-20T00:52:43.914Z,89.61
2022-09-20T00:53:39.132Z,89.90
2022-09-20T00:54:35.481Z,89.90
2022-09-20T00:55:30.703Z,89.85
2022-09-20T00:56:26.517Z,89.73
2022-09-20T00:57:21.706Z,89.78
2022-09-20T00:58:16.975Z,89.97
2022-09-20T00:59:12.644Z,90.00
2022-09-20T01:00:07.887Z,90.05
2022-09-20T01:01:03.802Z,90.50
2022-09-20T01:01:58.917Z,90.77
2022-09-20T01:02:54.303Z,90.79
2022-09-20T01:03:49.824Z,90.76
2022-09-20T01:04:45.045Z,90.59
2022-09-20T01:05:40.135Z,90.55
2022-09-20T01:06:36.575Z,90.71
2022-09-20T01:07:31.844Z,90.53
2022-09-20T01:08:27.644Z,90.62
2022-09-20T01:09:22.832Z,90.55
2022-09-20T01:10:17.949Z,90.29
2022-09-20T01:11:13.740Z,90.15
2022-09-20T01:12:08.888Z,90.10
2022-09-20T01:13:04.676Z,90.15
2022-09-20T01:13:59.881Z,90.07
2022-09-20T01:14:55.142Z,89.94
2022-09-20T01:15:50.337Z,89.88
2022-09-20T01:16:45.644Z,90.00
2022-09-20T01:17:42.003Z,90.22
2022-09-20T01:18:37.146Z,90.46
2022-09-20T01:19:32.946Z,90.62
2022-09-20T01:20:28.127Z,90.64
2022-09-20T01:21:23.508Z,90.80
2022-09-20T01:22:19.171Z,91.02
2022-09-20T01:23:14.416Z,91.29
2022-09-20T01:24:09.529Z,91.51
2022-09-20T01:25:05.834Z,91.61
2022-09-20T01:26:01.094Z,91.81
2022-09-20T01:26:56.932Z,91.97
2022-09-20T01:27:52.068Z,92.11
2022-09-20T01:28:47.156Z,92.38
2022-09-20T01:29:42.945Z,92.54
2022-09-20T01:30:38.188Z,92.65
2022-09-20T01:31:34.050Z,92.69
2022-09-20T01:32:29.169Z,92.70
2022-09-20T01:33:24.280Z,92.60
2022-09-20T01:34:19.333Z,92.59
2022-09-20T01:35:14.703Z,92.54
2022-09-20T01:36:10.249Z,92.50
2022-09-20T01:37:05.313Z,92.48
2022-09-20T01:38:00.572Z,92.36
2022-09-20T01:38:55.791Z,92.26
2022-09-20T01:39:52.131Z,92.26
2022-09-20T01:40:47.284Z,92.24
2022-09-20T01:41:42.377Z,92.28
2022-09-20T01:42:41.641Z,92.30
2022-09-20T01:43:36.938Z,92.39
2022-09-20T01:44:32.143Z,92.48
2022-09-20T01:45:27.326Z,92.65
2022-09-20T01:46:22.405Z,92.75
2022-09-20T01:47:17.401Z,92.88
2022-09-20T01:48:12.425Z,92.99
2022-09-20T01:49:07.619Z,93.14
2022-09-20T01:50:02.602Z,93.43
2022-09-20T01:50:57.795Z,93.53
2022-09-20T01:51:52.941Z,93.51
2022-09-20T01:52:48.123Z,93.43
2022-09-20T01:53:43.209Z,93.45
2022-09-20T01:54:38.210Z,93.30
2022-09-20T01:55:33.253Z,93.29
2022-09-20T01:56:28.364Z,93.22
2022-09-20T01:57:27.191Z,93.08
2022-09-20T01:58:18.471Z,93.00
2022-09-20T01:59:23.725Z,92.78
2022-09-20T02:00:09.693Z,92.58
2022-09-20T02:01:03.826Z,92.36
2022-09-20T02:01:58.882Z,92.19
2022-09-20T02:02:53.922Z,92.03
2022-09-20T02:03:49.040Z,91.91
2022-09-20T02:04:44.027Z,91.74
2022-09-20T02:05:39.136Z,91.64
2022-09-20T02:06:34.221Z,91.66
2022-09-20T02:07:31.084Z,91.83
2022-09-20T02:08:26.177Z,91.93
2022-09-20T02:09:21.290Z,91.99
2022-09-20T02:10:16.290Z,92.02
2022-09-20T02:11:11.344Z,92.07
2022-09-20T02:12:06.288Z,92.10
2022-09-20T02:13:01.288Z,92.03
2022-09-20T02:13:56.426Z,91.97
2022-09-20T02:14:51.432Z,91.95
2022-09-20T02:15:46.403Z,91.96
2022-09-20T02:16:41.565Z,91.82
2022-09-20T02:17:36.523Z,91.67
2022-09-20T02:18:31.637Z,91.59
2022-09-20T02:19:26.716Z,91.62
2022-09-20T02:20:21.824Z,91.74
2022-09-20T02:21:17.645Z,91.85
2022-09-20T02:22:12.876Z,91.84
2022-09-20T02:23:08.893Z,91.88
2022-09-20T02:24:03.831Z,91.95
2022-09-20T02:24:59.079Z,91.96
2022-09-20T02:25:54.886Z,91.99
2022-09-20T02:26:50.111Z,91.94
2022-09-20T02:27:45.442Z,91.78
2022-09-20T02:28:41.571Z,91.66
2022-09-20T02:29:36.669Z,91.68
2022-09-20T02:30:32.508Z,91.68
2022-09-20T02:31:27.622Z,91.90
2022-09-20T02:32:22.988Z,92.01
2022-09-20T02:33:18.653Z,91.87
2022-09-20T02:34:14.070Z,91.76
2022-09-20T02:35:09.741Z,91.55
2022-09-20T02:36:04.967Z,91.35
2022-09-20T02:37:00.332Z,91.17
2022-09-20T02:37:55.988Z,91.04
2022-09-20T02:38:51.251Z,90.79
2022-09-20T02:39:46.359Z,90.60
2022-09-20T02:40:42.847Z,90.40
2022-09-20T02:41:37.974Z,90.25
2022-09-20T02:42:33.757Z,90.17
2022-09-20T02:43:29.086Z,90.17
2022-09-20T02:44:24.061Z,90.26
2022-09-20T02:45:19.853Z,90.42
2022-09-20T02:46:15.046Z,90.61
2022-09-20T02:47:10.954Z,90.76
2022-09-20T02:48:06.014Z,90.91
2022-09-20T02:49:01.275Z,91.04
2022-09-20T02:49:56.931Z,91.20
2022-09-20T02:50:52.031Z,91.32
2022-09-20T02:51:47.231Z,91.43
2022-09-20T02:52:43.592Z,91.55
2022-09-20T02:53:38.691Z,91.47
2022-09-20T02:54:34.462Z,91.39
2022-09-20T02:55:29.575Z,91.35
2022-09-20T02:56:24.672Z,91.33
2022-09-20T02:57:20.568Z,91.33
2022-09-20T02:58:15.677Z,91.40
2022-09-20T02:59:11.648Z,91.49
2022-09-20T03:00:06.611Z,91.61
2022-09-20T03:01:01.930Z,91.66
2022-09-20T03:01:57.752Z,91.77
2022-09-20T03:02:52.955Z,91.82
2022-09-20T03:03:48.280Z,91.98
2022-09-20T03:04:44.378Z,92.13
2022-09-20T03:05:39.526Z,92.22
2022-09-20T03:06:35.338Z,92.32
2022-09-20T03:07:30.538Z,92.29
2022-09-20T03:08:25.754Z,92.26
2022-09-20T03:09:20.868Z,92.19
2022-09-20T03:10:17.635Z,92.11
2022-09-20T03:11:12.953Z,92.09
2022-09-20T03:12:08.083Z,92.07
2022-09-20T03:13:03.861Z,92.03
2022-09-20T03:13:59.112Z,91.96
2022-09-20T03:14:54.319Z,91.95
2022-09-20T03:15:50.721Z,91.98
2022-09-20T03:16:48.720Z,91.98
2022-09-20T03:17:42.666Z,92.03
2022-09-20T03:18:36.809Z,92.10
2022-09-20T03:19:31.942Z,92.19
2022-09-20T03:20:27.746Z,92.15
2022-09-20T03:21:22.981Z,92.03
2022-09-20T03:22:18.869Z,91.91
2022-09-20T03:23:13.976Z,91.87
2022-09-20T03:24:09.088Z,91.85
2022-09-20T03:25:04.888Z,91.74
2022-09-20T03:26:00.095Z,91.67
2022-09-20T03:26:55.304Z,91.64
2022-09-20T03:27:50.391Z,91.56
2022-09-20T03:28:45.614Z,91.49
2022-09-20T03:29:40.816Z,91.50
2022-09-20T03:30:35.974Z,91.51
2022-09-20T03:31:31.814Z,91.51
2022-09-20T03:32:26.943Z,91.50
2022-09-20T03:33:22.165Z,91.38
2022-09-20T03:34:17.961Z,91.27
2022-09-20T03:35:13.089Z,91.16
2022-09-20T03:36:08.326Z,91.24
2022-09-20T03:37:03.660Z,91.25
2022-09-20T03:37:58.764Z,91.41
2022-09-20T03:38:53.842Z,91.37
2022-09-20T03:39:48.848Z,91.38
2022-09-20T03:40:46.563Z,91.35
2022-09-20T03:41:39.046Z,91.43
2022-09-20T03:42:34.130Z,91.43
2022-09-20T03:43:29.238Z,91.49
2022-09-20T03:44:24.317Z,91.56
2022-09-20T03:45:19.445Z,91.60
2022-09-20T03:46:14.531Z,91.60
2022-09-20T03:47:09.507Z,91.58
2022-09-20T03:48:04.595Z,91.53
2022-09-20T03:48:59.711Z,91.56
2022-09-20T03:49:57.756Z,91.51
2022-09-20T03:50:52.870Z,91.57
2022-09-20T03:51:47.943Z,91.54
2022-09-20T03:52:43.048Z,91.47
2022-09-20T03:53:38.124Z,91.49
2022-09-20T03:54:33.223Z,91.45
2022-09-20T03:55:28.364Z,91.25
2022-09-20T03:56:23.338Z,91.15
2022-09-20T03:57:18.433Z,91.22
2022-09-20T03:58:13.502Z,91.39
2022-09-20T03:59:08.619Z,91.34
2022-09-20T04:00:03.618Z,91.21
2022-09-20T04:00:58.726Z,91.15
2022-09-20T04:01:53.743Z,91.04
2022-09-20T04:02:48.801Z,90.88
2022-09-20T04:03:43.895Z,90.67
2022-09-20T04:04:39.041Z,90.54
2022-09-20T04:05:34.090Z,90.46
2022-09-20T04:06:30.795Z,90.44
2022-09-20T04:07:25.889Z,90.52
2022-09-20T04:08:20.971Z,90.67
2022-09-20T04:09:16.088Z,90.75
2022-09-20T04:10:11.558Z,90.86
2022-09-20T04:11:06.232Z,90.92
2022-09-20T04:12:01.327Z,90.91
2022-09-20T04:12:56.404Z,90.80
2022-09-20T04:13:51.408Z,90.70
2022-09-20T04:14:46.743Z,90.52
2022-09-20T04:15:43.859Z,90.23
2022-09-20T04:16:39.007Z,90.13
2022-09-20T04:17:33.985Z,90.05
2022-09-20T04:18:29.107Z,89.83
2022-09-20T04:19:24.154Z,89.63
2022-09-20T04:20:19.231Z,89.63
2022-09-20T04:21:14.333Z,89.82
2022-09-20T04:22:09.340Z,89.98
2022-09-20T04:23:04.325Z,90.07
2022-09-20T04:23:59.432Z,90.23
2022-09-20T04:24:54.696Z,90.33
2022-09-20T04:25:49.582Z,90.39
2022-09-20T04:26:44.588Z,90.52
2022-09-20T04:27:44.133Z,90.66
2022-09-20T04:28:39.207Z,90.85
2022-09-20T04:29:34.392Z,91.12
2022-09-20T04:30:29.510Z,91.24
2022-09-20T04:31:24.546Z,91.28
2022-09-20T04:32:19.639Z,91.30
2022-09-20T04:33:14.606Z,91.37
2022-09-20T04:34:09.599Z,91.41
2022-09-20T04:35:04.614Z,91.43
2022-09-20T04:35:59.696Z,91.42
2022-09-20T04:36:54.687Z,91.43
2022-09-20T04:37:49.676Z,91.33
2022-09-20T04:38:44.700Z,91.42
2022-09-20T04:39:39.776Z,91.46
2022-09-20T04:40:35.044Z,91.53
2022-09-20T04:41:32.466Z,91.62
2022-09-20T04:42:25.956Z,91.75
2022-09-20T04:43:21.785Z,91.82
2022-09-20T04:44:16.998Z,91.76
2022-09-20T04:45:12.396Z,91.66
2022-09-20T04:46:08.174Z,91.61
2022-09-20T04:47:03.302Z,91.52
2022-09-20T04:47:58.488Z,91.49
2022-09-20T04:48:54.743Z,91.43
2022-09-20T04:49:49.941Z,91.37
2022-09-20T04:50:45.835Z,91.38
2022-09-20T04:51:40.982Z,91.37
2022-09-20T04:52:36.202Z,91.29
2022-09-20T04:53:31.931Z,91.18
2022-09-20T04:54:27.132Z,90.92
2022-09-20T04:55:22.873Z,90.82
2022-09-20T04:56:18.026Z,90.83
2022-09-20T04:57:13.363Z,90.92
2022-09-20T04:58:09.211Z,91.02
2022-09-20T04:59:04.396Z,91.02
2022-09-20T04:59:59.697Z,90.97
2022-09-20T05:00:56.029Z,90.93
2022-09-20T05:01:51.270Z,90.85
2022-09-20T05:02:47.006Z,90.84
2022-09-20T05:03:42.151Z,90.74
2022-09-20T05:04:37.307Z,90.65
2022-09-20T05:05:33.198Z,90.51
2022-09-20T05:06:28.362Z,90.25
2022-09-20T05:07:24.330Z,90.07
2022-09-20T05:08:19.501Z,89.86
2022-09-20T05:09:14.793Z,89.69
2022-09-20T05:10:10.563Z,89.55
2022-09-20T05:11:05.783Z,89.33
2022-09-20T05:12:01.139Z,89.25
2022-09-20T05:12:57.358Z,89.22
2022-09-20T05:13:52.587Z,89.19
2022-09-20T05:14:48.408Z,89.13
2022-09-20T05:15:43.607Z,88.80
2022-09-20T05:16:40.783Z,88.41
2022-09-20T05:17:34.333Z,88.36
2022-09-20T05:18:29.640Z,88.44
2022-09-20T05:19:26.088Z,88.67
2022-09-20T05:20:21.328Z,88.75
2022-09-20T05:21:17.097Z,88.68
2022-09-20T05:22:12.320Z,88.40
2022-09-20T05:23:07.609Z,88.31
2022-09-20T05:24:03.322Z,88.54
2022-09-20T05:24:58.582Z,88.73
2022-09-20T05:25:54.527Z,88.85
2022-09-20T05:26:49.664Z,88.93
2022-09-20T05:27:45.073Z,88.99
2022-09-20T05:28:40.933Z,89.06
2022-09-20T05:29:36.238Z,89.07
2022-09-20T05:30:31.623Z,89.11
2022-09-20T05:31:27.922Z,89.14
2022-09-20T05:32:23.166Z,89.23
2022-09-20T05:33:18.571Z,89.24
2022-09-20T05:34:13.723Z,89.27
2022-09-20T05:35:11.278Z,89.31
2022-09-20T05:36:06.507Z,89.42
2022-09-20T05:37:01.560Z,89.54
2022-09-20T05:37:56.603Z,89.69
2022-09-20T05:38:51.853Z,92.29
2022-09-20T05:39:46.952Z,92.53
2022-09-20T05:40:41.936Z,92.55
2022-09-20T05:41:36.950Z,92.13
2022-09-20T05:42:31.975Z,90.75
2022-09-20T05:43:27.176Z,90.09
2022-09-20T05:44:22.060Z,89.60
2022-09-20T05:45:17.059Z,89.44
2022-09-20T05:46:12.162Z,88.71
2022-09-20T05:47:07.149Z,88.79
2022-09-20T05:48:02.146Z,89.10
2022-09-20T05:48:57.381Z,88.83
2022-09-20T05:49:52.535Z,87.84
2022-09-20T05:50:47.513Z,87.41
2022-09-20T05:51:42.567Z,87.33
2022-09-20T05:52:37.635Z,87.38
2022-09-20T05:53:32.830Z,87.67
2022-09-20T05:54:28.855Z,87.97
2022-09-20T05:55:24.228Z,88.14
2022-09-20T05:56:19.557Z,88.35
2022-09-20T05:57:14.887Z,88.55
2022-09-20T05:58:11.732Z,88.76
2022-09-20T05:59:09.690Z,88.83
2022-09-20T06:00:02.496Z,88.94
2022-09-20T06:00:57.959Z,88.99
2022-09-20T06:01:53.442Z,89.11
2022-09-20T06:02:48.861Z,89.26
2022-09-20T06:03:44.232Z,89.33
2022-09-20T06:04:39.582Z,89.51
2022-09-20T06:05:34.982Z,89.57
2022-09-20T06:06:32.568Z,89.62
2022-09-20T06:07:25.671Z,89.72
2022-09-20T06:08:21.108Z,89.80
2022-09-20T06:09:16.467Z,89.85
2022-09-20T06:10:11.979Z,89.73
2022-09-20T06:11:07.236Z,89.66
2022-09-20T06:12:02.634Z,89.48
2022-09-20T06:12:58.067Z,89.30
2022-09-20T06:13:53.439Z,89.06
2022-09-20T06:14:48.511Z,89.24
2022-09-20T06:15:43.612Z,89.15
2022-09-20T06:16:38.858Z,89.00
2022-09-20T06:17:34.129Z,88.83
2022-09-20T06:18:29.099Z,88.72
2022-09-20T06:19:24.105Z,88.76
2022-09-20T06:20:19.234Z,88.88
2022-09-20T06:21:14.275Z,88.99
2022-09-20T06:22:09.379Z,89.10
2022-09-20T06:23:04.378Z,89.13
2022-09-20T06:23:59.487Z,89.34
2022-09-20T06:24:54.613Z,89.33
2022-09-20T06:25:49.719Z,89.32
2022-09-20T06:26:44.691Z,89.40
2022-09-20T06:27:41.613Z,89.49
2022-09-20T06:28:36.985Z,89.61
2022-09-20T06:29:32.349Z,89.58
2022-09-20T06:30:27.855Z,89.38
2022-09-20T06:31:23.225Z,89.30
2022-09-20T06:32:19.416Z,89.30
2022-09-20T06:33:13.968Z,89.42
2022-09-20T06:34:09.284Z,89.39
2022-09-20T06:35:04.727Z,89.24
2022-09-20T06:35:59.893Z,89.23
2022-09-20T06:36:55.211Z,89.10
2022-09-20T06:37:50.623Z,89.02
2022-09-20T06:38:45.987Z,89.14
2022-09-20T06:39:41.375Z,89.25
2022-09-20T06:40:38.178Z,89.36
2022-09-20T06:41:33.566Z,89.40
2022-09-20T06:42:28.942Z,89.40
2022-09-20T06:43:24.221Z,89.43
2022-09-20T06:44:19.698Z,89.52
2022-09-20T06:45:15.069Z,89.51
2022-09-20T06:46:11.712Z,89.53
2022-09-20T06:47:07.071Z,89.36
2022-09-20T06:48:02.498Z,89.42
2022-09-20T06:48:57.919Z,89.42
2022-09-20T06:49:53.284Z,89.25
2022-09-20T06:50:48.431Z,89.28
2022-09-20T06:51:43.531Z,89.36
2022-09-20T06:52:38.626Z,89.43
2022-09-20T06:53:33.796Z,89.48
2022-09-20T06:54:28.766Z,89.33
2022-09-20T06:55:28.453Z,89.24
2022-09-20T06:56:19.911Z,89.15
2022-09-20T06:57:13.995Z,89.08
2022-09-20T06:58:08.930Z,89.13
2022-09-20T06:59:04.036Z,89.14
2022-09-20T07:00:01.299Z,89.17
2022-09-20T07:00:56.738Z,89.28
2022-09-20T07:01:52.105Z,89.33
2022-09-20T07:02:47.515Z,89.22
2022-09-20T07:03:42.857Z,89.23
2022-09-20T07:04:38.355Z,89.16
2022-09-20T07:05:33.632Z,89.10
2022-09-20T07:06:28.982Z,88.91
2022-09-20T07:07:24.377Z,88.80
2022-09-20T07:08:19.793Z,88.76
2022-09-20T07:09:15.135Z,88.83
2022-09-20T07:10:10.551Z,88.71
2022-09-20T07:11:05.950Z,88.60
2022-09-20T07:12:01.338Z,88.57
2022-09-20T07:12:56.761Z,88.35
2022-09-20T07:13:51.814Z,88.39
2022-09-20T07:14:46.912Z,88.12
2022-09-20T07:15:42.044Z,87.69
2022-09-20T07:16:37.246Z,87.47
2022-09-20T07:17:32.261Z,87.36
2022-09-20T07:18:27.386Z,87.01
2022-09-20T07:19:22.401Z,87.00
2022-09-20T07:20:21.187Z,87.07
2022-09-20T07:21:12.698Z,87.19
2022-09-20T07:22:07.689Z,87.42
2022-09-20T07:23:03.758Z,87.61
2022-09-20T07:23:58.882Z,87.84
2022-09-20T07:24:53.889Z,87.66
2022-09-20T07:25:49.145Z,87.65
2022-09-20T07:26:45.080Z,88.30
2022-09-20T07:27:40.649Z,88.53
2022-09-20T07:28:36.038Z,88.30
2022-09-20T07:29:31.501Z,88.03
2022-09-20T07:30:27.148Z,87.87
2022-09-20T07:31:22.809Z,87.92
2022-09-20T07:32:18.075Z,87.69
2022-09-20T07:33:13.721Z,87.31
2022-09-20T07:34:09.202Z,86.80
2022-09-20T07:35:04.675Z,86.33
2022-09-20T07:36:00.362Z,85.88
2022-09-20T07:36:55.876Z,85.69
2022-09-20T07:37:51.353Z,85.02
2022-09-20T07:38:47.023Z,84.49
2022-09-20T07:39:42.117Z,84.25
2022-09-20T07:40:37.225Z,84.10
2022-09-20T07:41:32.220Z,84.03
2022-09-20T07:42:27.292Z,83.73
2022-09-20T07:43:22.654Z,83.72
2022-09-20T07:44:17.752Z,83.38
2022-09-20T07:45:12.826Z,83.04
2022-09-20T07:46:09.447Z,82.94
2022-09-20T07:47:04.422Z,82.93
2022-09-20T07:47:59.476Z,83.12
2022-09-20T07:48:54.601Z,83.26
2022-09-20T07:49:49.741Z,84.09
2022-09-20T07:50:44.809Z,84.37
2022-09-20T07:51:40.076Z,83.88
2022-09-20T07:52:35.549Z,83.57
2022-09-20T07:53:31.139Z,83.27
2022-09-20T07:54:26.685Z,83.23
2022-09-20T07:55:22.184Z,83.00
2022-09-20T07:56:17.786Z,82.86
2022-09-20T07:57:13.157Z,83.15
2022-09-20T07:58:08.642Z,83.30
2022-09-20T07:59:04.248Z,83.35
2022-09-20T07:59:59.687Z,83.42
2022-09-20T08:00:55.190Z,83.06
2022-09-20T08:01:50.747Z,82.47
2022-09-20T08:02:46.372Z,82.40
2022-09-20T08:03:41.833Z,82.34
2022-09-20T08:04:37.378Z,82.21
2022-09-20T08:05:33.006Z,82.10
2022-09-20T08:06:28.472Z,82.32
2022-09-20T08:07:23.976Z,82.42
2022-09-20T08:08:19.611Z,82.55
2022-09-20T08:09:15.117Z,82.47
2022-09-20T08:10:10.624Z,82.27
2022-09-20T08:11:06.111Z,81.07
2022-09-20T08:14:05.284Z,81.10
2022-09-20T08:14:08.806Z,80.22
2022-09-20T08:14:47.472Z,80.28
2022-09-20T08:15:41.461Z,80.74
2022-09-20T08:16:36.717Z,81.31
2022-09-20T08:17:31.689Z,81.67
2022-09-20T08:18:26.773Z,81.68
2022-09-20T08:19:21.774Z,81.49
2022-09-20T08:20:16.856Z,81.59
2022-09-20T08:21:11.949Z,81.30
2022-09-20T08:22:06.944Z,80.97
2022-09-20T08:23:22.371Z,81.06
2022-09-20T08:23:58.115Z,79.94
2022-09-20T08:24:52.572Z,79.57
2022-09-20T08:25:48.098Z,79.32
2022-09-20T08:26:43.598Z,78.26
2022-09-20T08:27:39.079Z,77.99
2022-09-20T08:28:34.538Z,78.49
2022-09-20T08:29:30.067Z,78.56
2022-09-20T08:30:27.636Z,78.33
2022-09-20T08:31:21.120Z,78.77
2022-09-20T08:32:16.465Z,78.59
2022-09-20T08:33:12.071Z,78.71
2022-09-20T08:34:07.569Z,78.23
2022-09-20T08:35:03.055Z,78.43
2022-09-20T08:35:58.573Z,78.93
2022-09-20T08:36:54.072Z,79.06
2022-09-20T08:37:49.724Z,78.89
2022-09-20T08:39:57.919Z,77.99
2022-09-20T08:40:35.823Z,77.90
2022-09-20T08:41:29.929Z,77.69
2022-09-20T08:42:24.879Z,77.88
2022-09-20T08:43:22.272Z,77.83
2022-09-20T08:44:15.108Z,77.72
2022-09-20T08:45:10.226Z,77.56
2022-09-20T08:46:05.904Z,77.58
2022-09-20T08:47:01.025Z,76.00
2022-09-20T08:47:58.690Z,75.22
2022-09-20T08:48:52.049Z,76.26
2022-09-20T08:49:56.413Z,75.79
2022-09-20T08:50:47.192Z,75.33
2022-09-20T08:51:42.041Z,75.15
2022-09-20T08:52:37.584Z,74.08
2022-09-20T08:53:33.061Z,74.38
2022-09-20T08:54:32.134Z,75.20
2022-09-20T08:55:25.405Z,75.28
2022-09-20T08:56:20.876Z,75.83
2022-09-20T08:57:16.395Z,75.60
2022-09-20T08:58:11.778Z,75.01
2022-09-20T08:59:07.433Z,74.18
2022-09-20T09:00:02.954Z,74.15
2022-09-20T09:00:58.591Z,73.77
2022-09-20T09:01:54.192Z,73.27
2022-09-20T09:02:49.593Z,72.93
2022-09-20T09:03:45.156Z,73.63
2022-09-20T09:04:40.655Z,74.17
2022-09-20T09:05:36.047Z,74.19
2022-09-20T09:06:31.543Z,72.44
2022-09-20T09:07:30.433Z,71.64
2022-09-20T09:08:25.898Z,72.08
2022-09-20T09:09:21.366Z,72.93
2022-09-20T09:10:17.076Z,73.09
2022-09-20T09:11:12.531Z,73.11
2022-09-20T09:12:08.020Z,72.69
2022-09-20T09:13:03.540Z,72.59
2022-09-20T09:13:59.019Z,72.10
2022-09-20T09:14:54.612Z,72.48
2022-09-20T09:15:50.127Z,72.84
2022-09-20T09:16:45.598Z,72.98
2022-09-20T09:17:41.092Z,72.50
2022-09-20T09:18:36.517Z,72.47
2022-09-20T09:19:33.642Z,71.93
2022-09-20T09:20:27.754Z,70.33
2022-09-20T09:21:22.760Z,69.27
2022-09-20T09:22:17.876Z,69.97
2022-09-20T09:23:12.900Z,68.91
2022-09-20T09:24:08.029Z,68.58
2022-09-20T09:25:03.149Z,67.73
2022-09-20T09:25:58.017Z,67.77
2022-09-20T09:26:53.005Z,66.56
2022-09-20T09:27:48.106Z,63.74
2022-09-20T09:28:43.188Z,64.17
2022-09-20T09:29:38.146Z,64.69
2022-09-20T09:30:34.535Z,64.76
2022-09-20T09:31:29.701Z,64.77
2022-09-20T09:32:24.721Z,64.00
2022-09-20T09:33:19.727Z,64.55
2022-09-20T09:34:15.797Z,62.66
2022-09-20T09:35:11.387Z,62.16
2022-09-20T09:36:06.802Z,60.48
2022-09-20T09:37:02.190Z,58.74
2022-09-20T09:37:57.612Z,58.43
2022-09-20T09:38:53.110Z,58.40
2022-09-20T09:39:48.579Z,57.26
2022-09-20T09:40:44.110Z,56.24
2022-09-20T09:41:39.364Z,56.22
2022-09-20T09:42:34.761Z,56.00
2022-09-20T09:43:30.250Z,57.19
2022-09-20T09:44:25.724Z,58.71
2022-09-20T09:45:21.206Z,59.26
2022-09-20T09:46:16.853Z,59.73
2022-09-20T09:47:11.870Z,60.35
2022-09-20T09:48:06.882Z,60.31
2022-09-20T09:49:01.999Z,60.51
2022-09-20T09:50:00.285Z,60.83
2022-09-20T09:50:52.199Z,62.38
2022-09-20T09:51:47.252Z,63.52
2022-09-20T09:52:42.334Z,63.20
2022-09-20T09:53:38.686Z,62.39
2022-09-20T09:54:33.823Z,60.34
2022-09-20T09:55:28.887Z,59.00
2022-09-20T09:56:23.995Z,59.40
2022-09-20T09:57:19.415Z,57.14
2022-09-20T09:58:14.876Z,56.36
2022-09-20T09:59:10.236Z,55.86
2022-09-20T10:00:11.106Z,55.69
2022-09-20T10:01:02.614Z,55.32
2022-09-20T10:01:57.028Z,54.41
2022-09-20T10:02:52.351Z,53.50
2022-09-20T10:03:47.836Z,53.51
2022-09-20T10:04:43.331Z,53.08
2022-09-20T10:05:38.825Z,52.49
2022-09-20T10:06:35.458Z,52.83
2022-09-20T10:07:30.894Z,53.96
2022-09-20T10:08:26.344Z,53.92
2022-09-20T10:09:21.698Z,55.17
2022-09-20T10:10:17.288Z,54.75
2022-09-20T10:11:12.889Z,54.92
2022-09-20T10:12:08.248Z,52.99
2022-09-20T10:13:03.811Z,53.49
2022-09-20T10:13:59.434Z,53.09
2022-09-20T10:14:54.792Z,53.05
2022-09-20T10:15:50.256Z,51.77
2022-09-20T10:16:45.779Z,50.94
2022-09-20T10:17:41.105Z,51.35
2022-09-20T10:18:36.604Z,50.60
2022-09-20T10:19:31.634Z,51.28
2022-09-20T10:20:26.783Z,52.12
2022-09-20T10:21:21.755Z,51.71
2022-09-20T10:22:16.741Z,50.70
2022-09-20T10:23:51.471Z,53.33
2022-09-20T10:24:07.863Z,52.23
2022-09-20T10:25:01.904Z,52.49
2022-09-20T10:25:56.960Z,53.10
2022-09-20T10:26:52.081Z,54.39
2022-09-20T10:27:47.084Z,54.33
2022-09-20T10:28:42.099Z,54.47
2022-09-20T10:29:37.125Z,55.22
2022-09-20T10:30:32.192Z,56.39
2022-09-20T10:31:27.301Z,57.61
2022-09-20T10:32:22.315Z,58.08
2022-09-20T10:33:17.376Z,54.73
2022-09-20T10:34:12.422Z,54.64
2022-09-20T10:35:07.518Z,54.90
2022-09-20T10:36:02.680Z,53.37
2022-09-20T10:36:57.732Z,53.70
2022-09-20T10:37:52.801Z,52.57
2022-09-20T10:38:47.858Z,51.13
2022-09-20T10:39:42.895Z,50.48
2022-09-20T10:40:37.958Z,48.87
2022-09-20T10:41:33.001Z,47.82
2022-09-20T10:42:28.597Z,47.72
2022-09-20T10:43:24.062Z,47.76
2022-09-20T10:44:19.512Z,47.70
2022-09-20T10:45:29.006Z,48.47
2022-09-20T10:46:31.345Z,49.24
2022-09-20T10:47:06.840Z,49.78
2022-09-20T10:48:03.285Z,49.46
2022-09-20T10:48:58.708Z,49.74
2022-09-20T10:49:54.130Z,52.40
2022-09-20T10:50:49.552Z,51.57
2022-09-20T10:51:45.084Z,52.78
2022-09-20T10:52:40.550Z,53.26
2022-09-20T10:53:36.015Z,53.17
2022-09-20T10:54:31.301Z,51.86
2022-09-20T10:55:27.241Z,53.50
2022-09-20T10:56:22.670Z,54.08
2022-09-20T10:57:18.191Z,53.77
2022-09-20T10:58:13.638Z,53.00
2022-09-20T10:59:09.214Z,52.10
2022-09-20T11:00:04.692Z,50.55
2022-09-20T11:01:00.167Z,50.43
2022-09-20T11:01:55.755Z,50.45
2022-09-20T11:02:51.046Z,50.56
2022-09-20T11:03:46.577Z,51.17
2022-09-20T11:04:41.992Z,51.82
2022-09-20T11:05:37.380Z,52.02
2022-09-20T11:06:32.909Z,52.75
2022-09-20T11:07:28.453Z,52.25
2022-09-20T11:08:27.817Z,52.58
2022-09-20T11:09:23.342Z,53.77
2022-09-20T11:10:19.013Z,53.46
2022-09-20T11:11:14.440Z,53.95
2022-09-20T11:12:09.812Z,54.12
2022-09-20T11:13:05.350Z,54.53
2022-09-20T11:14:00.817Z,55.76
2022-09-20T11:14:56.228Z,54.12
2022-09-20T11:15:51.660Z,54.46
2022-09-20T11:16:47.234Z,53.33
2022-09-20T11:17:42.579Z,52.55
2022-09-20T11:18:38.020Z,52.38
2022-09-20T11:19:33.358Z,51.95
2022-09-20T11:20:28.806Z,52.08
2022-09-20T11:21:24.298Z,51.14
2022-09-20T11:22:19.349Z,51.06
2022-09-20T11:23:14.359Z,49.71
2022-09-20T11:24:09.376Z,49.18
2022-09-20T11:25:04.416Z,50.07
2022-09-20T11:25:59.467Z,49.89
2022-09-20T11:26:54.479Z,50.58
2022-09-20T11:27:49.526Z,50.96
2022-09-20T11:28:44.539Z,51.88
2022-09-20T11:29:39.650Z,52.72
2022-09-20T11:30:34.768Z,53.67
2022-09-20T11:31:31.967Z,54.12
2022-09-20T11:32:26.973Z,54.52
2022-09-20T11:33:22.046Z,55.13
2022-09-20T11:34:17.130Z,53.80
2022-09-20T11:35:13.332Z,53.23
2022-09-20T11:36:08.763Z,55.07
2022-09-20T11:37:04.255Z,53.62
2022-09-20T11:37:59.741Z,52.38
2022-09-20T11:38:55.203Z,51.21
2022-09-20T11:39:50.514Z,49.00
2022-09-20T11:40:46.006Z,48.25
2022-09-20T11:41:41.364Z,46.25
2022-09-20T11:42:36.817Z,45.71
2022-09-20T11:43:32.275Z,46.02
2022-09-20T11:44:27.770Z,46.67
2022-09-20T11:45:28.141Z,47.44
2022-09-20T11:46:19.736Z,48.56
2022-09-20T11:47:15.530Z,49.07
2022-09-20T11:48:10.002Z,48.02
2022-09-20T11:49:04.113Z,48.12
2022-09-20T11:49:59.170Z,49.46
2022-09-20T11:50:54.221Z,48.75
2022-09-20T11:51:49.283Z,49.40
2022-09-20T11:52:44.292Z,48.86
2022-09-20T11:53:39.321Z,47.91
2022-09-20T11:54:37.084Z,47.76